Time;durP1;ratioP1;P1;durP2;ratioP2;P2;SDS_P1;SDS_P2;PMS_P1;PMS_P2;Temp;Humidity;BMP_temperature;BMP_pressure;BME280_temperature;BME280_humidity;BME280_pressure;Samples;Min_cycle;Max_cycle;Signal;HPM_P1;HPM_P2
2022/05/15 00:01:48;;;;;;;17.60;9.35;;;;;;;;;;5057397;28;20431;-69
2022/05/15 00:04:14;;;;;;;16.50;9.75;;;;;;;;;;5052383;28;20021;-71
2022/05/15 00:06:39;;;;;;;20.23;9.98;;;;;;;;;;5052316;28;20025;-70
2022/05/15 00:09:05;;;;;;;18.45;9.75;;;;;;;;;;5052031;28;20080;-70
2022/05/15 00:11:31;;;;;;;15.38;9.50;;;;;;;;;;5055857;28;20028;-70
2022/05/15 00:14:02;;;;;;;17.38;9.45;;;;;;;;;;5063387;28;20025;-70
2022/05/15 00:16:29;;;;;;;16.70;9.13;;;;;;;;;;5063443;28;20033;-70
2022/05/15 00:18:55;;;;;;;16.25;10.00;;;;;;;;;;5063489;28;20049;-71
2022/05/15 00:21:20;;;;;;;19.15;10.30;;;;;;;;;;5063559;28;20267;-70
2022/05/15 00:23:46;;;;;;;19.88;10.23;;;;;;;;;;5063256;28;20316;-70
2022/05/15 00:26:12;;;;;;;18.00;10.45;;;;;;;;;;5063374;28;20040;-72
2022/05/15 00:28:37;;;;;;;17.75;9.55;;;;;;;;;;5063307;28;20212;-71
2022/05/15 00:31:04;;;;;;;20.00;10.32;;;;;;;;;;5063371;28;20316;-71
2022/05/15 00:33:29;;;;;;;18.40;10.00;;;;;;;;;;5070217;28;20028;-69
2022/05/15 00:35:55;;;;;;;20.15;10.20;;;;;;;;;;5079489;28;20054;-70
2022/05/15 00:38:21;;;;;;;23.67;10.57;;;;;;;;;;5071600;28;20050;-70
2022/05/15 00:40:47;;;;;;;18.50;10.20;;;;;;;;;;5071705;28;20398;-71
2022/05/15 00:43:44;;;;;;;19.67;10.05;;;;;;;;;;5071476;28;20028;-69
2022/05/15 00:46:28;;;;;;;19.45;9.68;;;;;;;;;;5071447;28;20032;-68
2022/05/15 00:48:55;;;;;;;17.30;10.02;;;;;;;;;;5082975;28;20048;-71
2022/05/15 00:51:23;;;;;;;23.33;10.68;;;;;;;;;;5082852;28;20369;-71
2022/05/15 00:53:52;;;;;;;23.25;10.30;;;;;;;;;;5081679;28;20103;-70
2022/05/15 00:56:21;;;;;;;20.75;10.73;;;;;;;;;;5083024;28;20139;-70
2022/05/15 00:58:54;;;;;;;20.65;10.18;;;;;;;;;;5082809;28;20032;-70
2022/05/15 01:01:20;;;;;;;19.40;10.15;;;;;;;;;;5082784;28;20034;-70
2022/05/15 01:03:46;;;;;;;19.52;9.80;;;;;;;;;;5082554;28;20036;-71
2022/05/15 01:06:12;;;;;;;18.92;10.35;;;;;;;;;;5082456;28;20044;-70
2022/05/15 01:08:37;;;;;;;18.63;9.82;;;;;;;;;;5081362;28;20105;-70
2022/05/15 01:11:11;;;;;;;17.88;10.05;;;;;;;;;;5081369;28;20266;-70
2022/05/15 01:13:39;;;;;;;22.85;10.02;;;;;;;;;;5081504;28;20037;-71
2022/05/15 01:16:06;;;;;;;19.55;9.48;;;;;;;;;;5079982;28;20017;-70
2022/05/15 01:18:33;;;;;;;17.52;9.95;;;;;;;;;;5065470;28;20387;-70
2022/05/15 01:21:18;;;;;;;16.80;9.88;;;;;;;;;;5060732;28;20338;-69
2022/05/15 01:23:44;;;;;;;14.20;8.90;;;;;;;;;;5060753;28;20100;-70
2022/05/15 01:26:11;;;;;;;16.63;9.80;;;;;;;;;;5060390;28;20025;-70
2022/05/15 01:28:36;;;;;;;16.05;9.55;;;;;;;;;;5060631;28;20036;-71
2022/05/15 01:31:01;;;;;;;16.52;9.60;;;;;;;;;;5060643;28;20283;-70
2022/05/15 01:33:27;;;;;;;14.88;9.60;;;;;;;;;;5060796;28;20100;-69
2022/05/15 01:35:52;;;;;;;16.05;8.75;;;;;;;;;;5060429;28;20032;-71
2022/05/15 01:38:21;;;;;;;16.13;9.48;;;;;;;;;;5060797;28;20032;-70
2022/05/15 01:40:49;;;;;;;14.30;9.20;;;;;;;;;;5060355;28;20025;-71
2022/05/15 01:43:15;;;;;;;17.33;9.52;;;;;;;;;;5060332;28;20028;-70
2022/05/15 01:45:41;;;;;;;17.65;8.85;;;;;;;;;;5049726;28;20029;-70
2022/05/15 01:48:07;;;;;;;18.40;9.70;;;;;;;;;;5050567;28;20074;-71
2022/05/15 01:50:33;;;;;;;17.25;9.45;;;;;;;;;;5050481;28;20025;-70
2022/05/15 01:52:58;;;;;;;15.65;9.10;;;;;;;;;;5050272;28;20044;-71
2022/05/15 01:55:24;;;;;;;17.65;9.48;;;;;;;;;;5049896;28;20036;-71
2022/05/15 01:57:49;;;;;;;17.15;9.75;;;;;;;;;;5049954;28;20377;-70
2022/05/15 02:00:23;;;;;;;15.93;9.20;;;;;;;;;;5050082;28;20498;-70
2022/05/15 02:02:49;;;;;;;13.60;9.38;;;;;;;;;;5050292;28;20039;-69
2022/05/15 02:05:15;;;;;;;17.77;9.73;;;;;;;;;;5049962;28;20036;-70
2022/05/15 02:07:41;;;;;;;15.30;9.40;;;;;;;;;;5049947;28;20100;-70
2022/05/15 02:10:08;;;;;;;17.00;9.32;;;;;;;;;;5050013;28;20113;-70
2022/05/15 02:12:34;;;;;;;14.85;9.02;;;;;;;;;;5050071;28;20044;-71
2022/05/15 02:15:01;;;;;;;16.45;9.45;;;;;;;;;;5049791;28;20025;-70
2022/05/15 02:17:27;;;;;;;13.95;8.98;;;;;;;;;;5049777;28;20023;-71
2022/05/15 02:19:53;;;;;;;15.95;10.10;;;;;;;;;;5049958;28;20028;-70
2022/05/15 02:22:19;;;;;;;18.83;8.75;;;;;;;;;;5050296;28;20029;-70
2022/05/15 02:24:45;;;;;;;16.75;9.35;;;;;;;;;;5048465;28;20785;-69
2022/05/15 02:27:11;;;;;;;16.20;9.25;;;;;;;;;;5049863;28;20652;-69
2022/05/15 02:29:36;;;;;;;17.45;9.02;;;;;;;;;;5049781;28;20032;-70
2022/05/15 02:32:03;;;;;;;14.38;9.13;;;;;;;;;;5049631;28;20384;-70
2022/05/15 02:34:28;;;;;;;16.50;9.38;;;;;;;;;;5049697;28;20228;-70
2022/05/15 02:36:53;;;;;;;13.63;9.02;;;;;;;;;;5049510;28;20111;-69
2022/05/15 02:39:19;;;;;;;15.95;8.80;;;;;;;;;;5049928;28;20044;-69
2022/05/15 02:41:44;;;;;;;15.25;9.15;;;;;;;;;;5049702;28;20061;-70
2022/05/15 02:44:10;;;;;;;13.95;9.15;;;;;;;;;;5049831;28;20018;-70
2022/05/15 02:46:36;;;;;;;16.73;9.32;;;;;;;;;;5049406;28;20059;-70
2022/05/15 02:51:45;;;;;;;15.68;9.15;;;;;;;;;;5049386;28;20040;-70
2022/05/15 02:54:11;;;;;;;16.50;9.13;;;;;;;;;;5049445;28;20053;-72
2022/05/15 02:56:37;;;;;;;17.20;9.32;;;;;;;;;;5049333;28;20453;-70
2022/05/15 02:59:04;;;;;;;17.67;9.43;;;;;;;;;;5049815;28;20033;-71
2022/05/15 03:01:29;;;;;;;18.35;9.48;;;;;;;;;;5049475;28;20029;-68
2022/05/15 03:03:55;;;;;;;14.98;9.52;;;;;;;;;;5049515;28;20028;-70
2022/05/15 03:06:20;;;;;;;14.38;8.88;;;;;;;;;;5048975;28;20035;-70
2022/05/15 03:08:48;;;;;;;18.23;9.75;;;;;;;;;;5049387;28;20029;-70
2022/05/15 03:11:14;;;;;;;13.85;8.88;;;;;;;;;;5049427;28;20064;-70
2022/05/15 03:13:41;;;;;;;16.60;9.25;;;;;;;;;;5049532;28;20033;-70
2022/05/15 03:16:08;;;;;;;16.35;8.60;;;;;;;;;;5049209;28;20036;-69
2022/05/15 03:18:46;;;;;;;15.10;9.43;;;;;;;;;;5060981;28;20032;-70
2022/05/15 03:21:28;;;;;;;13.27;8.18;;;;;;;;;;5072956;28;20533;-70
2022/05/15 03:23:57;;;;;;;13.50;8.68;;;;;;;;;;5072885;28;20505;-70
2022/05/15 03:26:24;;;;;;;15.45;8.70;;;;;;;;;;5072763;28;20024;-70
2022/05/15 03:28:50;;;;;;;14.10;8.38;;;;;;;;;;5073242;28;20063;-68
2022/05/15 03:31:16;;;;;;;12.82;9.18;;;;;;;;;;5072932;28;20032;-71
2022/05/15 03:33:41;;;;;;;14.80;8.95;;;;;;;;;;5073010;28;20036;-70
2022/05/15 03:36:13;;;;;;;14.05;8.45;;;;;;;;;;5072741;28;20032;-69
2022/05/15 03:38:40;;;;;;;13.90;8.35;;;;;;;;;;5072730;28;20029;-69
2022/05/15 03:41:06;;;;;;;16.70;8.30;;;;;;;;;;5072584;28;20024;-69
2022/05/15 03:43:31;;;;;;;12.27;8.38;;;;;;;;;;5072753;28;20029;-69
2022/05/15 03:45:57;;;;;;;17.85;8.75;;;;;;;;;;5051550;28;20028;-71
2022/05/15 03:48:22;;;;;;;16.95;8.45;;;;;;;;;;5052727;28;20071;-71
2022/05/15 03:50:48;;;;;;;17.38;8.25;;;;;;;;;;5052643;28;20040;-70
2022/05/15 03:53:13;;;;;;;12.93;8.40;;;;;;;;;;5052990;28;20074;-71
2022/05/15 03:55:39;;;;;;;13.30;8.50;;;;;;;;;;5062755;28;20079;-70
2022/05/15 03:58:04;;;;;;;12.18;8.15;;;;;;;;;;5062257;28;20029;-70
2022/05/15 04:00:30;;;;;;;15.20;8.63;;;;;;;;;;5062461;28;20029;-70
2022/05/15 04:02:56;;;;;;;14.20;8.27;;;;;;;;;;5062377;28;20020;-70
2022/05/15 04:05:21;;;;;;;16.35;8.98;;;;;;;;;;5062447;28;20064;-71
2022/05/15 04:07:50;;;;;;;16.73;8.10;;;;;;;;;;5061764;28;20029;-69
2022/05/15 04:10:18;;;;;;;17.95;8.90;;;;;;;;;;5054188;28;20107;-70
2022/05/15 04:12:44;;;;;;;13.60;8.57;;;;;;;;;;5053538;28;20098;-70
2022/05/15 04:15:10;;;;;;;14.23;8.15;;;;;;;;;;5063156;28;20033;-69
2022/05/15 04:17:49;;;;;;;14.10;8.23;;;;;;;;;;5077616;28;20343;-70
2022/05/15 04:20:17;;;;;;;16.27;8.25;;;;;;;;;;5081812;28;20035;-70
2022/05/15 04:22:42;;;;;;;15.43;8.60;;;;;;;;;;5071840;28;20024;-71
2022/05/15 04:25:10;;;;;;;18.20;8.60;;;;;;;;;;5079523;28;20081;-70
2022/05/15 04:27:36;;;;;;;13.13;8.15;;;;;;;;;;5082288;28;20507;-70
2022/05/15 04:30:01;;;;;;;15.77;8.88;;;;;;;;;;5082279;28;20035;-69
2022/05/15 04:32:28;;;;;;;13.10;8.13;;;;;;;;;;5077029;28;20111;-71
2022/05/15 04:34:53;;;;;;;13.45;8.20;;;;;;;;;;5071850;28;20056;-70
2022/05/15 04:37:19;;;;;;;18.33;9.02;;;;;;;;;;5071401;28;20048;-68
2022/05/15 04:39:45;;;;;;;18.05;9.20;;;;;;;;;;5071888;28;20500;-70
2022/05/15 04:42:10;;;;;;;16.25;9.10;;;;;;;;;;5071740;28;20036;-70
2022/05/15 04:44:36;;;;;;;13.00;8.52;;;;;;;;;;5071844;28;20471;-70
2022/05/15 04:47:01;;;;;;;15.02;9.48;;;;;;;;;;5071240;28;20567;-71
2022/05/15 04:49:27;;;;;;;14.68;8.82;;;;;;;;;;5071715;28;20035;-71
2022/05/15 04:51:52;;;;;;;16.67;9.32;;;;;;;;;;5071043;28;20475;-70
2022/05/15 04:54:18;;;;;;;15.23;8.85;;;;;;;;;;5071379;28;20064;-70
2022/05/15 04:56:43;;;;;;;18.08;8.68;;;;;;;;;;5071161;28;20067;-71
2022/05/15 04:59:09;;;;;;;15.93;9.35;;;;;;;;;;5071547;28;20118;-71
2022/05/15 05:01:34;;;;;;;13.90;9.25;;;;;;;;;;5071349;28;20024;-71
2022/05/15 05:04:00;;;;;;;16.33;9.85;;;;;;;;;;5071271;28;20636;-69
2022/05/15 05:06:27;;;;;;;16.48;8.82;;;;;;;;;;5071098;28;20017;-71
2022/05/15 05:08:53;;;;;;;20.15;9.05;;;;;;;;;;5070923;28;20029;-70
2022/05/15 05:11:19;;;;;;;14.50;9.70;;;;;;;;;;5070961;28;20025;-70
2022/05/15 05:13:44;;;;;;;19.70;9.38;;;;;;;;;;5086667;28;20035;-70
2022/05/15 05:16:10;;;;;;;16.42;9.10;;;;;;;;;;5071122;28;20103;-71
2022/05/15 05:18:36;;;;;;;15.07;9.52;;;;;;;;;;5070932;28;20036;-71
2022/05/15 05:21:02;;;;;;;17.70;9.90;;;;;;;;;;5070913;28;20024;-69
2022/05/15 05:23:28;;;;;;;17.98;8.43;;;;;;;;;;5070637;28;20028;-71
2022/05/15 05:25:53;;;;;;;15.68;8.75;;;;;;;;;;5070781;28;20021;-70
2022/05/15 05:28:19;;;;;;;15.32;9.05;;;;;;;;;;5070606;28;20029;-68
2022/05/15 05:30:45;;;;;;;18.00;8.90;;;;;;;;;;5071068;28;20547;-71
2022/05/15 05:33:10;;;;;;;17.90;9.45;;;;;;;;;;5070610;28;20598;-71
2022/05/15 05:35:36;;;;;;;16.15;8.68;;;;;;;;;;5070882;28;20369;-71
2022/05/15 05:38:03;;;;;;;21.95;9.18;;;;;;;;;;5070281;28;20549;-70
2022/05/15 05:40:28;;;;;;;15.48;9.10;;;;;;;;;;5047604;28;20063;-71
2022/05/15 05:42:54;;;;;;;17.33;9.13;;;;;;;;;;5050213;28;20025;-70
2022/05/15 05:45:20;;;;;;;15.32;9.32;;;;;;;;;;5050539;28;20021;-71
2022/05/15 05:47:47;;;;;;;15.02;8.80;;;;;;;;;;5050260;28;20028;-69
2022/05/15 05:50:13;;;;;;;15.70;9.02;;;;;;;;;;5050687;28;20025;-72
2022/05/15 05:52:40;;;;;;;15.60;8.88;;;;;;;;;;5050099;28;20028;-72
2022/05/15 05:55:08;;;;;;;14.27;8.77;;;;;;;;;;5050146;28;20377;-71
2022/05/15 05:57:33;;;;;;;21.33;9.85;;;;;;;;;;5050230;28;20021;-70
2022/05/15 05:59:59;;;;;;;16.35;8.38;;;;;;;;;;5050295;28;20028;-70
2022/05/15 06:02:25;;;;;;;20.30;9.25;;;;;;;;;;5048476;28;20166;-70
2022/05/15 06:04:51;;;;;;;18.33;9.77;;;;;;;;;;5050183;28;20017;-70
2022/05/15 06:07:24;;;;;;;20.63;10.63;;;;;;;;;;5049904;28;20017;-71
2022/05/15 06:09:50;;;;;;;20.05;10.13;;;;;;;;;;5050341;28;20021;-71
2022/05/15 06:12:18;;;;;;;16.42;9.98;;;;;;;;;;5050163;28;20075;-70
2022/05/15 06:14:44;;;;;;;17.10;9.23;;;;;;;;;;5050248;28;20040;-69
2022/05/15 06:17:09;;;;;;;16.38;9.30;;;;;;;;;;5052753;28;20029;-67
2022/05/15 06:19:35;;;;;;;18.35;8.98;;;;;;;;;;5049813;28;20032;-71
2022/05/15 06:22:01;;;;;;;19.85;8.52;;;;;;;;;;5049822;28;20025;-69
2022/05/15 06:24:27;;;;;;;18.00;7.95;;;;;;;;;;5050039;28;20027;-71
2022/05/15 06:26:54;;;;;;;16.65;7.53;;;;;;;;;;5054548;28;20021;-71
2022/05/15 06:29:19;;;;;;;16.15;7.82;;;;;;;;;;5059877;28;20063;-70
2022/05/15 06:31:46;;;;;;;14.05;7.88;;;;;;;;;;5060265;28;20024;-71
2022/05/15 06:34:13;;;;;;;16.05;7.35;;;;;;;;;;5059452;28;20032;-71
2022/05/15 06:36:39;;;;;;;15.40;8.05;;;;;;;;;;5057767;28;20021;-69
2022/05/15 06:39:05;;;;;;;18.88;8.55;;;;;;;;;;5049255;28;20451;-71
2022/05/15 06:41:30;;;;;;;19.60;8.77;;;;;;;;;;5050506;28;20025;-69
2022/05/15 06:43:56;;;;;;;15.07;7.78;;;;;;;;;;5060285;28;20013;-68
2022/05/15 06:46:22;;;;;;;12.55;7.78;;;;;;;;;;5049605;28;20044;-71
2022/05/15 06:48:47;;;;;;;18.08;7.78;;;;;;;;;;5049021;28;20013;-71
2022/05/15 06:51:16;;;;;;;16.73;8.00;;;;;;;;;;5049369;28;20048;-74
2022/05/15 06:53:46;;;;;;;17.48;7.35;;;;;;;;;;5052365;28;20033;-75
2022/05/15 06:58:55;;;;;;;19.83;7.65;;;;;;;;;;5052795;28;20400;-76
2022/05/15 07:01:21;;;;;;;16.42;8.27;;;;;;;;;;5051780;28;20029;-79
2022/05/15 07:03:46;;;;;;;13.60;7.47;;;;;;;;;;5052096;28;20033;-80
2022/05/15 07:06:12;;;;;;;14.20;7.78;;;;;;;;;;5053390;28;20055;-69
2022/05/15 07:08:37;;;;;;;13.65;7.22;;;;;;;;;;5054143;28;20025;-68
2022/05/15 07:11:03;;;;;;;13.40;7.22;;;;;;;;;;5054034;28;20025;-69
2022/05/15 07:13:29;;;;;;;14.10;7.90;;;;;;;;;;5052716;28;20041;-70
2022/05/15 07:15:55;;;;;;;17.33;7.82;;;;;;;;;;5053408;28;20031;-69
2022/05/15 07:18:23;;;;;;;15.50;6.78;;;;;;;;;;5052563;28;20020;-75
2022/05/15 07:20:50;;;;;;;14.13;7.00;;;;;;;;;;5052868;28;20024;-71
2022/05/15 07:23:15;;;;;;;13.10;7.53;;;;;;;;;;5052195;28;20054;-73
2022/05/15 07:25:41;;;;;;;18.42;7.25;;;;;;;;;;5053170;28;20092;-78
2022/05/15 07:28:07;;;;;;;17.88;6.80;;;;;;;;;;5056271;28;20024;-79
2022/05/15 07:30:32;;;;;;;13.38;6.65;;;;;;;;;;5063426;28;20028;-79
2022/05/15 07:32:58;;;;;;;12.20;6.53;;;;;;;;;;5063715;28;20039;-76
2022/05/15 07:35:23;;;;;;;12.82;6.93;;;;;;;;;;5059739;28;20029;-72
2022/05/15 07:37:49;;;;;;;14.00;6.15;;;;;;;;;;5054612;28;20051;-77
2022/05/15 07:40:14;;;;;;;17.40;6.72;;;;;;;;;;5060345;28;20024;-76
2022/05/15 07:42:41;;;;;;;12.75;6.20;;;;;;;;;;5062394;28;20185;-73
2022/05/15 07:45:08;;;;;;;14.32;6.15;;;;;;;;;;5062082;28;20035;-73
2022/05/15 07:47:33;;;;;;;12.23;5.82;;;;;;;;;;5063320;28;20311;-72
2022/05/15 07:49:59;;;;;;;12.45;6.13;;;;;;;;;;5062571;28;20032;-74
2022/05/15 07:52:25;;;;;;;15.90;7.60;;;;;;;;;;5062817;28;20032;-71
2022/05/15 07:54:50;;;;;;;13.45;6.63;;;;;;;;;;5061900;28;20056;-76
2022/05/15 07:57:16;;;;;;;15.93;7.30;;;;;;;;;;5063084;28;20080;-78
2022/05/15 07:59:42;;;;;;;13.48;6.75;;;;;;;;;;5065176;28;20029;-79
2022/05/15 08:02:08;;;;;;;17.00;6.82;;;;;;;;;;5054438;28;20037;-72
2022/05/15 08:10:04;;;;;;;15.10;6.30;;;;;;;;;;5063556;28;20279;-72
2022/05/15 08:12:29;;;;;;;14.23;6.47;;;;;;;;;;5052795;28;20321;-72
2022/05/15 08:14:55;;;;;;;16.73;6.53;;;;;;;;;;5062821;28;20032;-74
2022/05/15 08:17:20;;;;;;;14.18;6.25;;;;;;;;;;5063686;28;20197;-73
2022/05/15 08:25:17;;;;;;;15.90;5.93;;;;;;;;;;5052043;28;20036;-74
2022/05/15 08:27:43;;;;;;;14.95;6.28;;;;;;;;;;5052043;28;20025;-76
2022/05/15 08:30:09;;;;;;;15.18;6.00;;;;;;;;;;5052515;28;20043;-71
2022/05/15 08:32:34;;;;;;;15.60;6.35;;;;;;;;;;5062195;28;20035;-71
2022/05/15 08:35:00;;;;;;;12.40;6.13;;;;;;;;;;5062307;28;20092;-69
2022/05/15 08:37:26;;;;;;;8.80;4.95;;;;;;;;;;5061734;28;20060;-71
2022/05/15 08:39:53;;;;;;;14.20;5.57;;;;;;;;;;5061247;28;20029;-68
2022/05/15 08:42:40;;;;;;;10.77;5.30;;;;;;;;;;5060861;28;20029;-71
2022/05/15 08:45:12;;;;;;;15.50;6.00;;;;;;;;;;5051621;28;20087;-69
2022/05/15 08:47:43;;;;;;;13.25;5.55;;;;;;;;;;5052089;28;20552;-70
2022/05/15 08:50:16;;;;;;;;;;;;;;;;;;5051661;28;20035;-70
2022/05/15 08:53:02;;;;;;;13.65;5.40;;;;;;;;;;5055887;28;19948;-70
2022/05/15 08:55:55;;;;;;;12.38;4.82;;;;;;;;;;5047409;28;20389;-75
2022/05/15 08:58:27;;;;;;;13.35;5.22;;;;;;;;;;5051353;28;20021;-70
2022/05/15 09:00:54;;;;;;;11.52;5.00;;;;;;;;;;5050860;28;20025;-71
2022/05/15 09:03:31;;;;;;;13.90;5.38;;;;;;;;;;5041028;28;20029;-70
2022/05/15 09:06:08;;;;;;;11.15;4.97;;;;;;;;;;5031059;28;20017;-72
2022/05/15 09:09:06;;;;;;;11.07;4.88;;;;;;;;;;5030888;28;20026;-72
2022/05/15 09:11:36;;;;;;;12.57;5.07;;;;;;;;;;5041065;28;20669;-70
2022/05/15 09:14:40;;;;;;;9.50;4.90;;;;;;;;;;5045224;28;20030;-70
2022/05/15 09:17:24;;;;;;;8.25;4.35;;;;;;;;;;5038186;28;20312;-68
2022/05/15 09:19:56;;;;;;;11.65;4.80;;;;;;;;;;5033404;28;20036;-71
2022/05/15 09:22:29;;;;;;;10.85;5.40;;;;;;;;;;5031000;28;20056;-72
2022/05/15 09:24:55;;;;;;;15.55;5.13;;;;;;;;;;5030787;28;20033;-70
2022/05/15 09:27:26;;;;;;;12.13;5.22;;;;;;;;;;5030879;28;20515;-70
2022/05/15 09:30:01;;;;;;;13.95;4.93;;;;;;;;;;5037117;28;20032;-72
2022/05/15 09:32:36;;;;;;;15.73;5.18;;;;;;;;;;5050702;28;20024;-71
2022/05/15 09:35:03;;;;;;;10.82;4.90;;;;;;;;;;5056822;28;20032;-71
2022/05/15 09:43:30;;;;;;;13.00;5.03;;;;;;;;;;5060348;28;20090;-64
2022/05/15 09:43:33;;;;;;;12.18;4.85;;;;;;;;;;5061832;28;20029;-65
2022/05/15 09:46:21;;;;;;;11.93;5.95;;;;;;;;;;5060638;28;20045;-66
2022/05/15 09:49:20;;;;;;;15.85;4.90;;;;;;;;;;5060136;28;20037;-65
2022/05/15 09:51:49;;;;;;;14.93;5.13;;;;;;;;;;5055741;28;20048;-67
2022/05/15 09:54:49;;;;;;;12.73;5.28;;;;;;;;;;5058354;28;20072;-68
2022/05/15 09:57:25;;;;;;;11.88;4.80;;;;;;;;;;5028208;28;20344;-67
2022/05/15 09:59:57;;;;;;;11.65;4.63;;;;;;;;;;5055912;28;20039;-71
2022/05/15 10:02:43;;;;;;;13.00;5.20;;;;;;;;;;5054104;28;20020;-76
2022/05/15 10:05:14;;;;;;;11.68;4.80;;;;;;;;;;5048605;28;20017;-72
2022/05/15 10:07:46;;;;;;;10.70;5.60;;;;;;;;;;5055810;28;20035;-73
2022/05/15 10:10:17;;;;;;;10.38;4.85;;;;;;;;;;5058466;28;20261;-75
2022/05/15 10:12:47;;;;;;;12.05;5.22;;;;;;;;;;5060743;28;20033;-73
2022/05/15 10:15:14;;;;;;;13.63;5.10;;;;;;;;;;5060540;28;20314;-74
2022/05/15 10:17:48;;;;;;;11.05;5.15;;;;;;;;;;5060821;28;20032;-74
2022/05/15 10:20:22;;;;;;;12.82;4.97;;;;;;;;;;5059702;28;20097;-73
2022/05/15 10:23:06;;;;;;;13.68;5.80;;;;;;;;;;5060551;28;20031;-69
2022/05/15 10:25:56;;;;;;;10.98;5.15;;;;;;;;;;5060358;28;20024;-73
2022/05/15 10:28:41;;;;;;;11.30;4.70;;;;;;;;;;5060267;28;20025;-72
2022/05/15 10:31:16;;;;;;;12.57;4.90;;;;;;;;;;5060231;28;20258;-73
2022/05/15 10:33:46;;;;;;;12.13;4.90;;;;;;;;;;5060758;28;20045;-73
2022/05/15 10:36:11;;;;;;;10.27;4.60;;;;;;;;;;5060346;28;20268;-71
2022/05/15 10:39:01;;;;;;;13.40;4.90;;;;;;;;;;5061028;28;20366;-71
2022/05/15 10:41:54;;;;;;;14.20;5.20;;;;;;;;;;5060563;28;20040;-73
2022/05/15 10:44:39;;;;;;;11.20;4.82;;;;;;;;;;5061468;28;20033;-74
2022/05/15 10:47:18;;;;;;;10.43;5.05;;;;;;;;;;5061050;28;20351;-73
2022/05/15 10:50:05;;;;;;;11.05;5.13;;;;;;;;;;5061135;28;20027;-69
2022/05/15 10:52:55;;;;;;;12.55;5.30;;;;;;;;;;5060899;28;20059;-73
2022/05/15 10:59:07;;;;;;;11.10;5.00;;;;;;;;;;5061219;28;20077;-77
2022/05/15 11:01:35;;;;;;;12.13;5.07;;;;;;;;;;5034174;28;20060;-78
2022/05/15 11:04:37;;;;;;;13.35;5.75;;;;;;;;;;5075416;28;20116;-75
2022/05/15 11:07:21;;;;;;;16.38;5.28;;;;;;;;;;5060439;28;20021;-74
2022/05/15 11:10:02;;;;;;;12.98;5.05;;;;;;;;;;5060424;28;20037;-73
2022/05/15 11:12:36;;;;;;;15.57;4.70;;;;;;;;;;5060200;28;20055;-76
2022/05/15 11:15:39;;;;;;;16.08;5.60;;;;;;;;;;5059035;28;20025;-72
2022/05/15 11:18:15;;;;;;;14.13;5.22;;;;;;;;;;5059541;28;20024;-73
2022/05/15 11:20:47;;;;;;;12.18;4.68;;;;;;;;;;5054528;28;20338;-74
2022/05/15 11:23:29;;;;;;;11.07;4.60;;;;;;;;;;5053749;28;20327;-74
2022/05/15 11:26:01;;;;;;;9.13;4.82;;;;;;;;;;5057801;28;20455;-74
2022/05/15 11:28:42;;;;;;;13.48;5.00;;;;;;;;;;5057012;28;20031;-73
2022/05/15 11:31:17;;;;;;;10.38;4.50;;;;;;;;;;5058900;28;20031;-76
2022/05/15 11:33:54;;;;;;;15.23;5.32;;;;;;;;;;5059232;28;20379;-75
2022/05/15 11:36:22;;;;;;;13.02;5.60;;;;;;;;;;5059525;28;20372;-77
2022/05/15 11:38:54;;;;;;;12.70;5.03;;;;;;;;;;5061423;28;20025;-71
2022/05/15 11:41:34;;;;;;;9.55;4.30;;;;;;;;;;5063464;28;20106;-70
2022/05/15 11:44:09;;;;;;;12.60;4.70;;;;;;;;;;5064286;28;20029;-68
2022/05/15 11:46:50;;;;;;;8.82;4.18;;;;;;;;;;5062686;28;20096;-70
2022/05/15 11:49:38;;;;;;;12.00;4.43;;;;;;;;;;5055406;28;20024;-70
2022/05/15 11:52:05;;;;;;;13.25;4.13;;;;;;;;;;5052450;28;20036;-71
2022/05/15 11:54:35;;;;;;;10.38;4.18;;;;;;;;;;5054417;28;20096;-70
2022/05/15 11:57:01;;;;;;;10.75;4.43;;;;;;;;;;5054713;28;20544;-75
2022/05/15 11:59:28;;;;;;;10.30;4.40;;;;;;;;;;5057214;28;20021;-70
2022/05/15 12:02:03;;;;;;;14.15;4.13;;;;;;;;;;5059109;28;20032;-70
2022/05/15 12:04:34;;;;;;;9.43;4.38;;;;;;;;;;5062224;28;20028;-70
2022/05/15 12:07:00;;;;;;;12.43;4.50;;;;;;;;;;5061169;28;20032;-70
2022/05/15 12:09:41;;;;;;;10.00;4.03;;;;;;;;;;5054088;28;20036;-71
2022/05/15 12:12:24;;;;;;;14.75;4.80;;;;;;;;;;5054076;28;20146;-71
2022/05/15 12:15:12;;;;;;;14.60;4.63;;;;;;;;;;5061899;28;20095;-70
2022/05/15 12:17:43;;;;;;;13.32;4.10;;;;;;;;;;5058506;28;20460;-67
2022/05/15 12:20:34;;;;;;;15.40;4.68;;;;;;;;;;5058337;28;20123;-66
2022/05/15 12:22:59;;;;;;;;;;;;;;;;;;5059401;28;20461;-69
2022/05/15 12:25:37;;;;;;;11.45;4.50;;;;;;;;;;5050644;28;19920;-70
2022/05/15 12:31:13;;;;;;;12.98;4.57;;;;;;;;;;5050768;28;20086;-71
2022/05/15 12:33:40;;;;;;;8.35;3.97;;;;;;;;;;5050536;28;20036;-70
2022/05/15 12:36:33;;;;;;;15.63;4.32;;;;;;;;;;5050584;28;20116;-70
2022/05/15 12:38:59;;;;;;;10.45;3.97;;;;;;;;;;5050517;28;20040;-69
2022/05/15 12:41:32;;;;;;;13.82;4.18;;;;;;;;;;5050375;28;20542;-70
2022/05/15 12:44:00;;;;;;;15.18;3.90;;;;;;;;;;5049407;28;20629;-69
2022/05/15 12:46:32;;;;;;;9.90;3.78;;;;;;;;;;5049091;28;20484;-69
2022/05/15 12:48:58;;;;;;;9.85;4.25;;;;;;;;;;5048626;28;20055;-70
2022/05/15 12:51:36;;;;;;;13.38;4.60;;;;;;;;;;5047832;28;20029;-70
2022/05/15 12:54:04;;;;;;;14.50;3.80;;;;;;;;;;5048400;28;20072;-69
2022/05/15 12:56:33;;;;;;;11.80;4.18;;;;;;;;;;5049497;28;20060;-69
2022/05/15 12:59:11;;;;;;;9.05;3.83;;;;;;;;;;5050625;28;20037;-69
2022/05/15 13:01:37;;;;;;;10.98;3.80;;;;;;;;;;5051075;28;20070;-70
2022/05/15 13:04:05;;;;;;;11.55;3.78;;;;;;;;;;5051057;28;20032;-70
2022/05/15 13:06:37;;;;;;;13.23;4.25;;;;;;;;;;5051127;28;20072;-70
2022/05/15 13:09:08;;;;;;;10.95;4.00;;;;;;;;;;5050829;28;20025;-70
2022/05/15 13:11:38;;;;;;;;;;;;;;;;;;5051393;28;20025;-70
2022/05/15 13:14:05;;;;;;;10.70;4.30;;;;;;;;;;5050520;28;19962;-70
2022/05/15 13:16:44;;;;;;;12.05;4.43;;;;;;;;;;5051166;28;20057;-69
2022/05/15 13:19:13;;;;;;;11.27;4.75;;;;;;;;;;5050863;28;20021;-70
2022/05/15 13:21:42;;;;;;;13.25;4.80;;;;;;;;;;5050950;28;20116;-70
2022/05/15 13:24:09;;;;;;;12.02;4.45;;;;;;;;;;5051001;28;20043;-69
2022/05/15 13:26:45;;;;;;;10.70;5.10;;;;;;;;;;5051076;28;20053;-69
2022/05/15 13:29:14;;;;;;;12.35;4.80;;;;;;;;;;5050279;28;20090;-71
2022/05/15 13:31:41;;;;;;;9.65;4.22;;;;;;;;;;5050917;28;20025;-69
2022/05/15 13:34:10;;;;;;;13.77;4.70;;;;;;;;;;5050720;28;20392;-77
2022/05/15 13:36:36;;;;;;;10.23;4.23;;;;;;;;;;5050814;28;20095;-72
2022/05/15 13:44:35;;;;;;;12.10;4.43;;;;;;;;;;5045117;28;20074;-72
2022/05/15 13:47:15;;;;;;;9.57;4.13;;;;;;;;;;5049925;28;20029;-69
2022/05/15 13:49:43;;;;;;;13.30;4.30;;;;;;;;;;5049939;28;20268;-71
2022/05/15 13:52:41;;;;;;;13.70;4.13;;;;;;;;;;5050227;28;20443;-70
2022/05/15 13:55:10;;;;;;;10.35;4.15;;;;;;;;;;5005790;28;20052;-72
2022/05/15 13:57:54;;;;;;;10.75;4.50;;;;;;;;;;5050372;28;20025;-72
2022/05/15 14:00:31;;;;;;;15.40;4.32;;;;;;;;;;5050192;28;20108;-72
2022/05/15 14:03:04;;;;;;;12.25;4.10;;;;;;;;;;5039742;28;20032;-74
2022/05/15 14:05:37;;;;;;;11.48;4.50;;;;;;;;;;5050032;28;20108;-73
2022/05/15 14:08:18;;;;;;;17.35;4.45;;;;;;;;;;5049701;28;20025;-73
2022/05/15 14:10:45;;;;;;;13.23;4.50;;;;;;;;;;5050036;28;20044;-72
2022/05/15 14:13:14;;;;;;;11.18;4.30;;;;;;;;;;5047527;28;20459;-74
2022/05/15 14:15:43;;;;;;;11.90;3.97;;;;;;;;;;5049794;28;20519;-70
2022/05/15 14:18:18;;;;;;;12.73;4.30;;;;;;;;;;5049886;28;20025;-74
2022/05/15 14:20:47;;;;;;;9.95;4.13;;;;;;;;;;5049626;28;20423;-74
2022/05/15 14:23:14;;;;;;;10.18;3.55;;;;;;;;;;5049610;28;20340;-75
2022/05/15 14:25:43;;;;;;;13.00;3.35;;;;;;;;;;5065301;28;20399;-77
2022/05/15 14:28:10;;;;;;;10.10;3.55;;;;;;;;;;5050026;28;20090;-77
2022/05/15 14:30:37;;;;;;;16.83;3.40;;;;;;;;;;5050142;28;20024;-72
2022/05/15 14:33:05;;;;;;;12.48;3.58;;;;;;;;;;5049625;28;20087;-70
2022/05/15 14:35:38;;;;;;;15.18;3.42;;;;;;;;;;5050219;28;20033;-71
2022/05/15 14:38:04;;;;;;;12.05;3.80;;;;;;;;;;5049310;28;20029;-70
2022/05/15 14:40:30;;;;;;;11.10;3.05;;;;;;;;;;5047847;28;20021;-69
2022/05/15 14:42:55;;;;;;;11.85;3.90;;;;;;;;;;5048731;28;20017;-71
2022/05/15 14:45:21;;;;;;;14.45;4.00;;;;;;;;;;5048422;28;20044;-70
2022/05/15 14:47:54;;;;;;;7.35;3.63;;;;;;;;;;5049063;28;20021;-71
2022/05/15 14:50:21;;;;;;;8.27;3.67;;;;;;;;;;5048728;28;20021;-70
2022/05/15 14:52:49;;;;;;;12.25;3.95;;;;;;;;;;5048597;28;20025;-72
2022/05/15 14:57:59;;;;;;;12.13;3.45;;;;;;;;;;5049161;28;20195;-69
2022/05/15 15:00:28;;;;;;;13.00;3.25;;;;;;;;;;5048788;28;20186;-70
2022/05/15 15:02:54;;;;;;;11.50;3.88;;;;;;;;;;5048735;28;20384;-70
2022/05/15 15:05:19;;;;;;;12.88;3.85;;;;;;;;;;5048709;28;20022;-71
2022/05/15 15:07:45;;;;;;;13.32;3.47;;;;;;;;;;5044225;28;20029;-71
2022/05/15 15:10:11;;;;;;;11.55;3.28;;;;;;;;;;5039702;28;20171;-70
2022/05/15 15:12:36;;;;;;;11.73;3.80;;;;;;;;;;5042280;28;20029;-72
2022/05/15 15:15:03;;;;;;;9.70;3.42;;;;;;;;;;5040929;28;20029;-74
2022/05/15 15:17:28;;;;;;;14.98;3.97;;;;;;;;;;5044186;28;20030;-71
2022/05/15 15:19:53;;;;;;;13.52;3.83;;;;;;;;;;5038185;28;20118;-71
2022/05/15 15:22:19;;;;;;;9.82;3.42;;;;;;;;;;5039241;28;20072;-72